CheckWX is a tool to help pilots better visualize weather data.  It is not intended as a substitute for an official pre-flight weather briefing.

04:39:48 UTC

GVNP METAR
Praia International Airport
Praia, Cape Verde
Current

40 mins ago

GVNP 020400Z 03006KT 9999 FEW016 SCT200 22/17 Q1016 NOSIG
Observed
Jun-2 @ 04:00 UTC
Wind
  • 030° at 6 KTS
Visibility
10,000+ meters
Flight Rules
VFR
Cloud Levels
  • Few at 1,600' AGL
  • Scattered at 20,000' AGL
Temperature
22°C / 72°F
Dewpoint
17°C / 63°F
Humidity
73%
Altimeter
30" Hg
Pressure
1015.92 hPa
Previous

2 hours ago

GVNP 020300Z 03007KT 9999 FEW016 SCT200 23/17 Q1016 NOSIG
Observed
Jun-2 @ 03:00 UTC
Wind
  • 030° at 7 KTS
Visibility
10,000+ meters
Flight Rules
VFR
Cloud Levels
  • Few at 1,600' AGL
  • Scattered at 20,000' AGL
Temperature
23°C / 73°F
Dewpoint
17°C / 63°F
Humidity
69%
Altimeter
30" Hg
Pressure
1015.92 hPa
Previous

3 hours ago

GVNP 020200Z 03008KT 9999 FEW016 SCT100 23/18 Q1017 NOSIG
Observed
Jun-2 @ 02:00 UTC
Wind
  • 030° at 8 KTS
Visibility
10,000+ meters
Flight Rules
VFR
Cloud Levels
  • Few at 1,600' AGL
  • Scattered at 10,000' AGL
Temperature
23°C / 73°F
Dewpoint
18°C / 64°F
Humidity
74%
Altimeter
30.03" Hg
Pressure
1016.92 hPa